Hlavní strana
METAR-TAF:

METAR-TAF

Letiště :

Ghardája, Alžírsko

zeměpisná šířka: 32-23N, zeměpisná délka: 003-49E, výška: 450 m

Aktuální stav počasí

Zpráva byla vytvořena před 1 hodinou a 19 minutami, v 02:00 UTC
Severní vítr 11 kt
Teplota 13°C
Vlhkost vzduchu 58%
Tlak 1016 hPa
Viditelnost 10 km a více
Žádná oblačnost pod 1500 m, nevyskytují se cumulonimby.

METAR: DAUG 040200Z 35011KT CAVOK 13/05 Q1016

Čas: 04:19 (03:19 UTC)

Předpověď počasí

Zpráva byla vytvořena před 4 hodinami a 19 minutami, v 23:00 UTC
Předpověď platná od 04 v 00 UTC do 04 v 24 UTC
Severoseverozápadní vítr 10 kt
Viditelnost 10 km a více
Žádná oblačnost pod 1500 m, nevyskytují se cumulonimby.
Pravděpodobnost 30% :
Dočasný
od 04 v 00 UTC do 04 v 06 UTC
Viditelnost: 4000 m
zákal
Změna
od 04 v 02 UTC do 04 v 05 UTC
Severovýchodní vítr 10 kt
Změna
od 04 v 09 UTC do 04 v 13 UTC
Jihovýchodní vítr 8 kt

TAF: DAUG 032300Z 0400/0424 34010KT CAVOK PROB30 TEMPO 0400/0406 4000 HZ BECMG 0402/0405 04010KT BECMG 0409/0413 13008KT

Stav a předpovědi počasí z více než 4 000 letišť (zprávy METAR a TAF).

Červené a žluté tečky na mapě představují dostupné meteorologické stanice.

Když kurzor umístíte na tečku, zobrazí se název stanice.

Pak kliknutím zobrazíte stav a předpověď počasí.

Chcete-li změnit mapu, kliknutím na zelené tlačítko se znaménkem +mapu přiblížíte, kliknutím na zelené tlačítko se znaménkem – mapu oddálíte a kliknutím na zelené šipky přejdete na sousední mapy.


METAR-TAF: